Time;durP1;ratioP1;P1;durP2;ratioP2;P2;SDS_P1;SDS_P2;PMS_P1;PMS_P2;Temp;Humidity;BMP_temperature;BMP_pressure;BME280_temperature;BME280_humidity;BME280_pressure;Samples;Min_cycle;Max_cycle;Signal;HPM_P1;HPM_P2
2022/06/14 00:01:06;;;;;;;14.00;11.20;;;;;;;11.00;82.02;98929.21;108645;1271;22603;-79
2022/06/14 00:03:41;;;;;;;12.60;10.00;;;;;;;11.02;82.09;98931.69;108653;1271;22579;-79
2022/06/14 00:06:10;;;;;;;13.10;9.70;;;;;;;11.01;82.19;98930.16;108657;1271;22529;-79
2022/06/14 00:08:38;;;;;;;11.90;9.80;;;;;;;11.00;82.42;98932.48;108655;1271;22608;-80
2022/06/14 00:11:09;;;;;;;16.00;11.20;;;;;;;11.00;82.71;98939.47;108663;1270;22554;-79
2022/06/14 00:13:37;;;;;;;19.10;12.50;;;;;;;10.99;82.72;98944.60;108674;1271;22579;-79
2022/06/14 00:16:04;;;;;;;14.80;11.80;;;;;;;10.98;82.56;98947.24;108654;1270;22606;-79
2022/06/14 00:18:32;;;;;;;14.60;10.30;;;;;;;11.00;82.40;98949.27;108618;1270;22621;-79
2022/06/14 00:20:59;;;;;;;14.90;10.20;;;;;;;11.01;82.61;98948.30;108641;1271;23518;-78
2022/06/14 00:23:26;;;;;;;16.50;11.00;;;;;;;11.02;82.81;98949.26;108660;1269;22550;-79
2022/06/14 00:25:55;;;;;;;16.30;12.00;;;;;;;11.03;82.87;98948.34;108674;1269;22551;-79
2022/06/14 00:28:28;;;;;;;34.60;12.40;;;;;;;11.05;82.86;98942.09;108675;1271;22544;-79
2022/06/14 00:31:00;;;;;;;13.60;11.40;;;;;;;11.09;82.72;98941.36;108647;1271;22544;-79
2022/06/14 00:33:27;;;;;;;13.40;10.30;;;;;;;11.12;82.55;98943.39;108662;1271;22535;-79
2022/06/14 00:36:04;;;;;;;12.80;9.50;;;;;;;11.14;82.76;98945.73;108659;1271;22558;-79
2022/06/14 00:38:34;;;;;;;13.50;9.60;;;;;;;11.15;83.06;98943.58;108679;1269;27122;-80
2022/06/14 00:41:03;;;;;;;14.70;9.80;;;;;;;11.13;83.27;98946.65;108662;1271;22572;-81
2022/06/14 00:43:32;;;;;;;16.70;10.60;;;;;;;11.08;83.25;98948.54;108698;1271;22616;-79
2022/06/14 00:46:16;;;;;;;15.10;11.30;;;;;;;11.03;82.93;98948.67;108646;1271;22537;-85
2022/06/14 00:48:47;;;;;;;15.50;11.10;;;;;;;10.99;82.52;98950.54;108654;1271;22531;-82
2022/06/14 00:51:23;;;;;;;13.20;10.50;;;;;;;10.96;82.58;98950.02;108684;1271;24233;-84
2022/06/14 00:54:15;;;;;;;13.20;10.20;;;;;;;10.91;82.73;98953.75;108643;1271;22658;-80
2022/06/14 00:56:52;;;;;;;14.20;10.30;;;;;;;10.86;83.05;98959.84;108644;1270;22561;-78
2022/06/14 00:59:25;;;;;;;14.50;10.50;;;;;;;10.79;82.81;98965.34;108661;1271;22552;-80
2022/06/14 01:01:56;;;;;;;;;;;;;;;10.72;82.63;98967.33;108674;1271;22502;-81
2022/06/14 01:04:29;;;;;;;13.60;10.80;;;;;;;10.65;82.26;98964.60;108668;1269;22537;-81
2022/06/14 01:07:02;;;;;;;12.20;9.60;;;;;;;10.64;82.21;98968.00;108655;1270;22763;-81
2022/06/14 01:09:42;;;;;;;13.30;10.20;;;;;;;10.61;82.51;98973.57;108677;1271;22569;-80
2022/06/14 01:12:13;;;;;;;14.60;11.30;;;;;;;10.57;82.60;98973.27;108677;1271;22547;-80
2022/06/14 01:15:01;;;;;;;14.60;11.60;;;;;;;10.52;82.54;98976.86;108645;1271;22538;-81
2022/06/14 01:17:33;;;;;;;15.90;11.80;;;;;;;10.48;82.55;98978.83;108664;1271;24090;-80
2022/06/14 01:20:00;;;;;;;12.70;10.40;;;;;;;10.45;82.11;98981.81;108658;1271;23974;-80
2022/06/14 01:22:30;;;;;;;14.10;10.20;;;;;;;10.46;82.24;98982.95;108671;1271;22547;-80
2022/06/14 01:25:00;;;;;;;12.70;9.00;;;;;;;10.46;82.32;98981.43;108674;1271;22563;-81
2022/06/14 01:27:30;;;;;;;14.00;8.40;;;;;;;10.46;82.61;98980.34;108680;1271;22576;-81
2022/06/14 01:30:10;;;;;;;19.40;9.50;;;;;;;10.47;82.74;98980.09;108642;1271;22641;-82
2022/06/14 01:32:49;;;;;;;13.70;9.00;;;;;;;10.48;82.78;98982.85;108676;1271;22544;-81
2022/06/14 01:35:23;;;;;;;13.10;8.70;;;;;;;10.48;82.79;98984.94;108660;1269;22550;-81
2022/06/14 01:37:53;;;;;;;13.90;9.50;;;;;;;10.49;82.59;98992.00;108676;1271;24387;-81
2022/06/14 01:40:44;;;;;;;14.70;8.70;;;;;;;10.52;82.65;98995.86;108656;1271;22571;-81
2022/06/14 01:43:30;;;;;;;12.50;7.20;;;;;;;10.56;82.77;98993.77;108672;1271;22717;-81
2022/06/14 01:46:08;;;;;;;18.10;9.40;;;;;;;10.54;83.08;98994.88;108647;1271;22545;-81
2022/06/14 01:51:50;;;;;;;15.60;9.40;;;;;;;10.50;83.05;98992.34;108661;1269;22560;-80
2022/06/14 01:52:13;;;;;;;13.40;8.90;;;;;;;10.45;82.99;98990.86;108639;1271;22544;-81
2022/06/14 01:55:02;;;;;;;15.10;8.00;;;;;;;10.44;83.13;98993.52;108644;1270;22529;-81
2022/06/14 01:57:46;;;;;;;11.50;7.50;;;;;;;10.48;82.70;98995.70;108673;1271;25359;-81
2022/06/14 02:00:19;;;;;;;13.00;6.80;;;;;;;10.51;82.91;98999.42;108653;1271;22554;-80
2022/06/14 02:06:03;;;;;;;11.10;7.90;;;;;;;10.59;83.78;99008.02;108558;1271;22570;-82
2022/06/14 02:08:35;;;;;;;11.70;7.60;;;;;;;10.59;83.53;99007.48;108470;1269;24253;-80
2022/06/14 02:11:14;;;;;;;12.90;7.10;;;;;;;10.60;83.44;99004.13;108414;1271;22556;-80
2022/06/14 02:13:52;;;;;;;16.80;6.70;;;;;;;10.62;83.32;99008.48;108463;1270;23254;-80
2022/06/14 02:16:38;;;;;;;9.50;6.40;;;;;;;10.67;83.30;99011.86;108440;1271;22573;-79
2022/06/14 02:19:30;;;;;;;8.50;5.30;;;;;;;10.67;83.41;99015.66;108452;1271;22545;-80
2022/06/14 02:22:21;;;;;;;12.80;5.90;;;;;;;10.66;83.48;99022.73;108419;1271;22546;-80
2022/06/14 02:24:52;;;;;;;11.60;5.90;;;;;;;10.62;83.26;99026.95;108409;1271;25340;-80
2022/06/14 02:27:39;;;;;;;9.00;5.60;;;;;;;10.59;83.05;99028.73;108347;1271;22572;-80
2022/06/14 02:30:11;;;;;;;7.90;5.10;;;;;;;10.57;82.79;99027.94;108338;1270;22633;-80
2022/06/14 02:32:50;;;;;;;16.50;5.20;;;;;;;10.59;82.73;99029.91;108419;1270;22580;-80
2022/06/14 02:35:31;;;;;;;9.50;5.10;;;;;;;10.59;82.82;99028.55;108452;1271;22540;-80
2022/06/14 02:38:10;;;;;;;10.30;4.80;;;;;;;10.58;83.03;99030.87;108447;1271;22538;-80
2022/06/14 02:40:53;;;;;;;8.90;4.40;;;;;;;10.54;82.73;99036.50;108468;1271;22554;-80
2022/06/14 02:43:27;;;;;;;8.90;5.00;;;;;;;10.52;82.59;99039.75;108449;1271;22548;-80
2022/06/14 02:46:05;;;;;;;9.50;4.70;;;;;;;10.50;82.22;99039.69;108443;1270;22551;-81
2022/06/14 02:48:41;;;;;;;9.30;4.40;;;;;;;10.51;81.91;99044.16;108508;1271;25211;-80
2022/06/14 02:51:37;;;;;;;7.70;4.20;;;;;;;10.49;82.17;99046.48;108452;1271;22534;-80
2022/06/14 02:54:20;;;;;;;9.60;5.20;;;;;;;10.46;82.20;99054.73;108407;1271;22545;-80
2022/06/14 02:56:53;;;;;;;11.10;4.90;;;;;;;10.42;82.10;99055.83;108439;1271;25274;-80
2022/06/14 02:59:42;;;;;;;15.20;6.10;;;;;;;10.40;81.84;99057.48;108451;1271;22553;-80
2022/06/14 03:02:25;;;;;;;20.40;6.00;;;;;;;10.39;81.62;99058.45;108465;1271;22554;-80
2022/06/14 03:05:20;;;;;;;11.90;5.80;;;;;;;10.39;81.47;99060.69;108468;1271;22571;-80
2022/06/14 03:07:57;;;;;;;13.50;6.60;;;;;;;10.37;81.90;99060.63;108439;1271;22858;-80
2022/06/14 03:10:38;;;;;;;19.20;8.50;;;;;;;10.38;82.01;99060.94;108469;1271;24433;-80
2022/06/14 03:13:16;;;;;;;16.80;7.30;;;;;;;10.42;81.92;99065.39;108464;1271;25365;-79
2022/06/14 03:15:55;;;;;;;16.80;7.30;;;;;;;10.44;81.57;99064.95;108450;1271;22640;-79
2022/06/14 03:18:25;;;;;;;13.70;6.50;;;;;;;10.46;81.50;99067.44;108466;1271;22567;-79
2022/06/14 03:21:16;;;;;;;13.60;7.10;;;;;;;10.51;81.27;99068.17;108470;1270;22625;-79
2022/06/14 03:23:55;;;;;;;15.90;7.50;;;;;;;10.58;81.84;99074.55;108472;1271;24457;-79
2022/06/14 03:26:35;;;;;;;18.60;7.30;;;;;;;10.61;82.07;99079.45;108443;1268;23365;-79
2022/06/14 03:29:08;;;;;;;14.80;6.80;;;;;;;10.63;81.98;99081.42;108473;1271;23955;-79
2022/06/14 03:31:44;;;;;;;12.50;6.30;;;;;;;10.65;81.55;99083.94;108454;1269;22560;-79
2022/06/14 03:34:21;;;;;;;15.10;5.90;;;;;;;10.66;81.27;99082.27;108476;1269;25365;-79
2022/06/14 03:36:48;;;;;;;10.40;4.70;;;;;;;10.73;81.15;99085.20;108487;1270;22547;-79
2022/06/14 03:39:30;;;;;;;11.20;5.80;;;;;;;10.77;81.45;99085.11;108511;1271;22541;-79
2022/06/14 03:41:58;;;;;;;12.30;5.00;;;;;;;10.79;81.54;99087.77;108481;1271;22795;-81
2022/06/14 03:44:27;;;;;;;13.20;4.70;;;;;;;10.82;81.32;99091.08;108475;1271;22615;-79
2022/06/14 03:47:09;;;;;;;8.70;4.60;;;;;;;10.85;81.08;99093.67;108449;1271;22552;-79
2022/06/14 03:49:40;;;;;;;13.30;4.30;;;;;;;10.90;80.69;99094.09;108479;1271;22556;-79
2022/06/14 03:52:26;;;;;;;9.00;4.40;;;;;;;10.98;80.58;99103.08;108455;1271;25118;-79
2022/06/14 03:55:30;;;;;;;9.00;4.40;;;;;;;11.03;80.83;99105.55;108453;1271;22541;-79
2022/06/14 03:57:59;;;;;;;;;;;;;;;11.08;80.95;99107.88;107975;1279;22538;-79
2022/06/14 04:00:51;;;;;;;13.40;7.70;;;;;;;11.08;81.00;99110.64;107901;1279;25557;-79
2022/06/14 04:03:29;;;;;;;13.50;7.10;;;;;;;11.12;80.54;99112.11;107934;1279;22539;-79
2022/06/14 04:06:16;;;;;;;17.10;8.30;;;;;;;11.17;80.35;99119.88;107931;1279;22693;-79
2022/06/14 04:09:10;;;;;;;17.20;8.20;;;;;;;11.24;80.27;99120.64;107951;1279;22583;-79
2022/06/14 04:11:49;;;;;;;11.80;7.20;;;;;;;11.32;80.41;99120.87;107951;1279;22572;-80
2022/06/14 04:14:24;;;;;;;10.50;5.40;;;;;;;11.39;80.55;99117.34;107927;1279;22820;-79
2022/06/14 04:17:03;;;;;;;11.70;5.20;;;;;;;11.42;80.38;99122.35;107961;1279;22600;-79
2022/06/14 04:19:53;;;;;;;11.00;4.50;;;;;;;11.47;79.90;99124.67;107928;1279;22574;-80
2022/06/14 04:22:41;;;;;;;10.20;4.70;;;;;;;11.52;79.61;99123.34;107913;1279;22619;-79
2022/06/14 04:25:22;;;;;;;8.70;4.10;;;;;;;11.58;79.28;99126.95;107937;1279;22553;-79
2022/06/14 04:28:04;;;;;;;8.80;4.40;;;;;;;11.65;79.04;99125.30;107953;1279;24248;-79
2022/06/14 04:31:04;;;;;;;9.80;4.90;;;;;;;11.69;79.27;99128.70;107940;1279;26967;-79
2022/06/14 04:33:49;;;;;;;8.60;4.50;;;;;;;11.76;79.21;99127.42;107883;1278;22580;-79
2022/06/14 04:36:21;;;;;;;7.50;4.50;;;;;;;11.88;79.78;99128.39;108368;1271;23920;-80
2022/06/14 04:38:56;;;;;;;8.10;5.30;;;;;;;12.12;79.76;99127.93;108386;1271;25410;-79
2022/06/14 04:41:31;;;;;;;11.60;4.80;;;;;;;12.49;80.80;99124.54;108406;1271;22535;-79
2022/06/14 04:44:06;;;;;;;12.00;6.00;;;;;;;12.90;80.97;99121.80;108390;1271;22534;-80
2022/06/14 04:46:59;;;;;;;17.30;7.30;;;;;;;13.36;80.84;99124.46;108450;1271;22616;-79
2022/06/14 04:49:48;;;;;;;8.70;4.90;;;;;;;13.85;78.19;99120.31;108392;1271;22555;-79
2022/06/14 04:52:32;;;;;;;11.80;4.50;;;;;;;14.28;78.27;99114.74;108359;1271;22527;-79
2022/06/14 04:55:07;;;;;;;12.70;5.30;;;;;;;14.76;79.08;99119.28;108387;1270;22627;-80
2022/06/14 04:57:43;;;;;;;12.30;6.50;;;;;;;15.14;78.19;99118.02;108368;1271;22523;-80
2022/06/14 05:00:18;;;;;;;47.00;16.80;;;;;;;15.50;75.14;99117.67;108390;1271;22535;-79
2022/06/14 05:02:55;;;;;;;38.70;16.10;;;;;;;15.74;74.80;99115.11;108332;1271;22548;-79
2022/06/14 05:05:26;;;;;;;17.70;7.10;;;;;;;16.03;72.53;99117.13;108395;1271;25416;-80
2022/06/14 05:08:02;;;;;;;12.10;5.90;;;;;;;16.30;72.02;99123.42;108472;1271;22541;-80
2022/06/14 05:10:44;;;;;;;15.00;5.00;;;;;;;16.60;72.37;99125.58;108444;1270;22522;-79
2022/06/14 05:13:25;;;;;;;11.10;5.30;;;;;;;16.87;71.30;99130.90;108481;1269;22741;-80
2022/06/14 05:15:58;;;;;;;13.80;6.20;;;;;;;17.12;70.68;99129.48;108499;1270;22609;-80
2022/06/14 05:18:34;;;;;;;12.20;4.90;;;;;;;17.28;68.11;99131.85;108465;1271;22577;-79
2022/06/14 05:21:13;;;;;;;6.90;3.40;;;;;;;17.42;67.44;99131.19;108496;1270;22537;-81
2022/06/14 05:23:48;;;;;;;7.60;3.10;;;;;;;17.47;65.89;99132.30;108465;1271;22563;-78
2022/06/14 05:26:46;;;;;;;7.50;2.80;;;;;;;17.51;65.64;99131.25;108469;1270;22528;-79
2022/06/14 05:29:31;;;;;;;6.50;2.90;;;;;;;17.46;63.69;99133.08;108462;1271;22525;-81
2022/06/14 05:32:01;;;;;;;4.90;3.00;;;;;;;17.45;63.75;99134.77;108487;1271;22544;-76
2022/06/14 05:34:40;;;;;;;6.50;3.30;;;;;;;17.47;63.60;99133.54;108466;1271;22678;-78
2022/06/14 05:37:33;;;;;;;8.10;3.20;;;;;;;17.49;63.65;99130.41;108502;1270;23260;-80
2022/06/14 05:40:06;;;;;;;;;;;;;;;17.52;62.91;99131.39;107963;1279;22539;-82
2022/06/14 05:42:56;;;;;;;7.60;3.40;;;;;;;17.41;62.35;99128.56;107966;1279;23064;-82
2022/06/14 05:45:23;;;;;;;9.60;4.40;;;;;;;17.27;62.31;99133.30;107954;1279;22700;-80
2022/06/14 05:47:57;;;;;;;7.60;3.90;;;;;;;17.22;61.35;99133.70;107927;1279;22617;-81
2022/06/14 05:50:31;;;;;;;6.20;2.70;;;;;;;17.17;61.42;99131.86;107911;1279;23305;-81
2022/06/14 05:53:19;;;;;;;5.00;3.10;;;;;;;17.12;61.01;99131.97;107924;1279;24231;-80
2022/06/14 05:55:52;;;;;;;5.00;2.60;;;;;;;17.02;60.82;99134.38;107940;1279;25383;-80
2022/06/14 05:58:39;;;;;;;6.10;2.40;;;;;;;16.92;60.56;99134.50;107963;1279;22903;-80
2022/06/14 06:01:16;;;;;;;4.40;2.30;;;;;;;16.86;60.11;99134.29;107932;1279;22569;-81
2022/06/14 06:03:55;;;;;;;5.60;2.40;;;;;;;16.81;60.39;99135.62;107932;1279;22541;-80
2022/06/14 06:06:29;;;;;;;8.80;3.90;;;;;;;16.75;60.40;99140.19;107955;1279;22861;-80
2022/06/14 06:09:03;;;;;;;5.70;2.90;;;;;;;16.65;60.84;99140.95;107966;1279;23440;-80
2022/06/14 06:12:10;;;;;;;7.80;2.40;;;;;;;16.63;61.02;99144.34;107929;1279;22610;-80
2022/06/14 06:14:44;;;;;;;6.00;2.30;;;;;;;16.60;61.36;99146.70;107956;1279;23819;-80
2022/06/14 06:17:36;;;;;;;7.30;2.60;;;;;;;16.59;61.19;99149.55;108152;1271;22584;-80
2022/06/14 06:20:23;;;;;;;4.50;1.90;;;;;;;16.60;61.18;99145.59;108444;1271;22572;-80
2022/06/14 06:22:57;;;;;;;7.10;3.60;;;;;;;16.63;61.22;99146.98;108427;1270;25248;-81
2022/06/14 06:25:28;;;;;;;9.50;4.10;;;;;;;16.66;61.29;99150.42;108429;1271;22577;-79
2022/06/14 06:28:13;;;;;;;5.80;2.10;;;;;;;16.68;61.15;99146.35;108443;1271;22531;-80
2022/06/14 06:30:50;;;;;;;5.60;1.90;;;;;;;16.70;60.92;99146.39;108405;1271;22575;-81
2022/06/14 06:33:19;;;;;;;3.60;2.00;;;;;;;16.72;60.35;99144.67;108435;1271;22557;-80
2022/06/14 06:35:46;;;;;;;4.00;2.00;;;;;;;16.72;60.41;99147.05;108481;1271;22539;-77
2022/06/14 06:38:22;;;;;;;3.70;2.20;;;;;;;16.75;60.56;99149.31;108418;1271;22550;-78
2022/06/14 06:43:51;;;;;;;7.80;2.00;;;;;;;16.86;60.85;99151.34;108405;1271;22564;-79
2022/06/14 06:46:24;;;;;;;3.50;1.70;;;;;;;16.92;60.59;99152.10;108459;1271;22534;-79
2022/06/14 06:48:55;;;;;;;;;;;;;;;16.96;60.30;99151.66;108624;1271;22514;-80
2022/06/14 06:51:30;;;;;;;3.20;1.60;;;;;;;16.99;60.47;99156.27;108495;1271;22659;-79
2022/06/14 06:54:09;;;;;;;5.20;1.80;;;;;;;17.04;60.15;99151.83;108503;1271;22543;-79
2022/06/14 06:56:41;;;;;;;3.30;1.60;;;;;;;17.11;60.07;99155.22;108449;1271;25321;-78
2022/06/14 06:59:36;;;;;;;5.80;1.70;;;;;;;17.20;60.22;99156.80;108452;1270;22512;-79
2022/06/14 07:02:16;;;;;;;4.60;1.60;;;;;;;17.29;60.10;99154.30;108471;1271;22569;-79
2022/06/14 07:07:47;;;;;;;5.50;1.70;;;;;;;17.51;59.99;99153.46;108397;1271;22541;-80
2022/06/14 07:10:39;;;;;;;4.50;1.60;;;;;;;17.69;59.88;99155.81;108350;1270;25387;-80
2022/06/14 07:13:28;;;;;;;3.10;1.30;;;;;;;17.81;59.27;99159.52;108517;1271;22560;-80
2022/06/14 07:16:21;;;;;;;3.20;1.30;;;;;;;17.88;58.81;99167.89;108471;1271;22778;-80
2022/06/14 07:18:55;;;;;;;;;;;;;;;17.99;58.09;99165.16;108437;1271;22527;-80
2022/06/14 07:21:28;;;;;;;3.00;1.30;;;;;;;18.15;57.17;99170.09;108465;1271;22540;-80
2022/06/14 07:24:03;;;;;;;4.90;1.50;;;;;;;18.34;56.96;99167.67;108337;1271;22550;-80
2022/06/14 07:26:44;;;;;;;5.60;2.00;;;;;;;18.45;56.80;99172.58;108510;1271;24316;-80
2022/06/14 07:29:33;;;;;;;5.00;1.60;;;;;;;18.50;55.50;99174.59;108469;1270;26281;-82
2022/06/14 07:32:14;;;;;;;4.70;1.70;;;;;;;18.64;55.06;99168.06;108427;1270;22525;-80
2022/06/14 07:34:42;;;;;;;2.90;1.20;;;;;;;18.83;54.15;99167.23;108478;1271;22540;-80
2022/06/14 07:37:42;;;;;;;6.80;1.60;;;;;;;18.96;54.86;99169.20;108485;1271;22544;-80
2022/06/14 07:40:14;;;;;;;5.40;2.60;;;;;;;19.02;55.01;99171.23;108457;1270;25584;-80
2022/06/14 07:43:05;;;;;;;4.40;1.50;;;;;;;18.91;54.26;99174.23;108515;1271;23305;-80
2022/06/14 07:45:39;;;;;;;4.40;1.60;;;;;;;18.73;54.60;99176.40;108489;1270;22550;-80
2022/06/14 07:48:15;;;;;;;3.30;1.30;;;;;;;18.52;53.57;99179.16;108496;1271;22546;-81
2022/06/14 07:51:10;;;;;;;4.70;1.50;;;;;;;18.27;54.08;99180.46;108530;1270;25413;-81
2022/06/14 07:53:40;;;;;;;3.60;1.60;;;;;;;18.15;54.59;99180.30;108489;1271;22534;-80
2022/06/14 07:56:16;;;;;;;6.10;1.20;;;;;;;18.20;53.86;99178.08;108697;1271;22568;-80
2022/06/14 07:58:54;;;;;;;5.20;1.30;;;;;;;18.23;54.07;99177.30;108496;1271;22628;-80
2022/06/14 08:01:25;;;;;;;3.90;1.30;;;;;;;18.35;53.70;99173.04;108520;1271;25150;-80
2022/06/14 08:04:22;;;;;;;3.60;1.50;;;;;;;18.36;53.79;99176.34;108487;1270;22511;-79
2022/06/14 08:06:56;;;;;;;6.70;1.40;;;;;;;18.40;53.39;99170.84;108391;1270;22555;-80
2022/06/14 08:09:32;;;;;;;2.90;1.30;;;;;;;18.63;53.51;99169.70;108438;1271;22544;-79
2022/06/14 08:12:01;;;;;;;6.70;1.70;;;;;;;18.89;53.77;99175.34;108494;1271;22547;-79
2022/06/14 08:14:45;;;;;;;4.60;1.50;;;;;;;19.05;53.61;99176.30;108464;1271;22522;-78
2022/06/14 08:17:19;;;;;;;3.00;1.20;;;;;;;19.18;51.55;99171.77;108477;1271;22545;-80
2022/06/14 08:19:57;;;;;;;4.10;1.70;;;;;;;19.22;51.43;99168.35;108483;1269;22570;-77
2022/06/14 08:22:38;;;;;;;4.30;1.30;;;;;;;19.23;51.10;99172.49;108516;1270;22545;-78
2022/06/14 08:25:20;;;;;;;3.90;1.40;;;;;;;19.28;51.18;99166.27;108508;1271;22665;-79
2022/06/14 08:27:58;;;;;;;2.60;1.20;;;;;;;19.36;51.48;99160.71;108500;1271;24775;-79
2022/06/14 08:30:35;;;;;;;4.60;1.30;;;;;;;19.46;51.31;99160.09;108474;1271;22550;-79
2022/06/14 08:33:07;;;;;;;4.20;1.40;;;;;;;19.48;51.33;99165.81;108476;1269;22518;-79
2022/06/14 08:35:52;;;;;;;5.00;1.60;;;;;;;19.34;51.53;99170.91;108325;1270;22568;-76
2022/06/14 08:38:41;;;;;;;3.90;1.30;;;;;;;19.38;50.69;99163.30;108417;1271;22527;-77
2022/06/14 08:41:37;;;;;;;4.20;1.20;;;;;;;19.40;50.15;99158.52;108372;1270;22631;-77
2022/06/14 08:44:16;;;;;;;4.50;1.30;;;;;;;19.58;50.12;99160.94;108422;1271;22546;-76
2022/06/14 08:47:04;;;;;;;3.70;1.20;;;;;;;19.72;50.44;99165.27;108663;1270;22544;-79
2022/06/14 08:49:43;;;;;;;2.80;1.10;;;;;;;19.88;50.33;99169.21;108397;1268;22721;-77
2022/06/14 08:52:47;;;;;;;4.60;1.40;;;;;;;19.91;49.33;99168.14;108567;1271;22585;-77
2022/06/14 08:55:45;;;;;;;3.20;1.30;;;;;;;19.98;49.59;99171.35;108692;1270;24280;-78
2022/06/14 08:58:34;;;;;;;3.10;1.10;;;;;;;20.15;48.67;99164.17;108634;1271;22533;-78
2022/06/14 09:01:37;;;;;;;2.70;1.00;;;;;;;20.29;47.19;99158.80;108540;1271;22619;-78
2022/06/14 09:04:41;;;;;;;5.30;1.00;;;;;;;20.44;47.04;99159.02;108604;1271;22554;-78
2022/06/14 09:07:31;;;;;;;2.70;0.80;;;;;;;20.61;46.11;99155.98;108579;1271;22696;-78
2022/06/14 09:10:13;;;;;;;4.90;0.90;;;;;;;20.77;46.96;99159.05;108592;1271;25308;-79
2022/06/14 09:13:13;;;;;;;4.30;1.00;;;;;;;20.96;46.74;99158.02;108589;1271;22527;-79
2022/06/14 09:16:08;;;;;;;6.00;1.20;;;;;;;21.09;45.16;99152.95;108602;1271;22594;-78
2022/06/14 09:18:40;;;;;;;3.50;1.00;;;;;;;21.14;44.96;99154.59;108597;1271;22639;-79
2022/06/14 09:21:22;;;;;;;2.40;0.80;;;;;;;21.18;44.63;99154.34;108610;1271;22542;-79
2022/06/14 09:24:04;;;;;;;2.60;1.10;;;;;;;20.97;44.31;99155.91;108347;1271;391659;-80
2022/06/14 09:26:42;;;;;;;3.70;1.20;;;;;;;20.87;45.45;99160.13;108615;1271;22757;-79
2022/06/14 09:29:43;;;;;;;4.70;1.10;;;;;;;20.89;44.60;99161.90;108637;1271;22711;-79
2022/06/14 09:32:15;;;;;;;3.30;1.10;;;;;;;20.81;43.83;99156.59;108610;1271;22579;-79
2022/06/14 09:35:02;;;;;;;3.70;1.00;;;;;;;20.86;44.19;99152.95;108642;1271;22537;-78
2022/06/14 09:38:20;;;;;;;4.50;1.10;;;;;;;20.97;43.64;99145.70;108417;1270;22715;-79
2022/06/14 09:41:11;;;;;;;3.50;1.10;;;;;;;21.38;44.56;99150.41;107947;1278;22548;-79
2022/06/14 09:44:01;;;;;;;7.00;1.40;;;;;;;21.59;43.54;99146.97;107958;1278;22547;-79
2022/06/14 09:46:49;;;;;;;5.50;1.40;;;;;;;21.72;42.86;99149.40;107895;1278;22531;-78
2022/06/14 09:49:35;;;;;;;4.30;1.30;;;;;;;21.84;42.69;99141.89;107968;1278;24224;-79
2022/06/14 09:52:26;;;;;;;3.50;1.00;;;;;;;21.86;42.26;99135.84;107941;1278;22564;-79
2022/06/14 09:55:11;;;;;;;3.80;1.10;;;;;;;21.87;42.79;99138.23;107926;1278;22542;-80
2022/06/14 09:57:38;;;;;;;3.80;1.10;;;;;;;21.92;42.43;99134.75;107960;1278;22545;-83
2022/06/14 10:00:23;;;;;;;5.00;1.80;;;;;;;21.92;42.95;99134.34;107944;1280;23374;-79
2022/06/14 10:03:01;;;;;;;4.10;1.20;;;;;;;21.83;42.50;99137.09;107913;1278;23355;-79
2022/06/14 10:05:50;;;;;;;2.80;0.90;;;;;;;21.55;42.06;99135.15;107926;1277;23357;-78
2022/06/14 10:08:26;;;;;;;3.70;1.30;;;;;;;21.35;41.45;99130.84;107940;1278;22835;-79
2022/06/14 10:11:09;;;;;;;3.90;1.40;;;;;;;21.27;41.52;99126.84;107965;1278;22549;-79
2022/06/14 10:13:47;;;;;;;3.90;1.60;;;;;;;21.37;42.01;99125.73;107963;1280;22495;-79
2022/06/14 10:16:32;;;;;;;2.70;1.40;;;;;;;21.42;42.27;99124.17;108060;1271;22687;-80
2022/06/14 10:19:29;;;;;;;2.20;1.10;;;;;;;21.34;42.30;99117.48;108391;1271;22529;-77
2022/06/14 10:22:26;;;;;;;3.70;1.10;;;;;;;21.23;43.24;99123.55;108431;1271;22553;-78
2022/06/14 10:25:10;;;;;;;6.10;1.30;;;;;;;21.21;42.65;99120.40;108411;1271;24269;-79
2022/06/14 10:28:13;;;;;;;8.20;1.40;;;;;;;21.13;42.69;99124.58;108406;1271;22556;-77
2022/06/14 10:30:58;;;;;;;4.20;1.40;;;;;;;21.13;42.17;99125.11;108416;1271;22583;-78
2022/06/14 10:33:53;;;;;;;3.30;0.90;;;;;;;21.26;41.59;99125.93;108485;1271;23444;-77
2022/06/14 10:36:32;;;;;;;5.50;1.30;;;;;;;21.52;40.69;99120.61;108459;1271;22521;-76
2022/06/14 10:38:59;;;;;;;1.90;1.10;;;;;;;21.81;39.69;99117.55;108467;1271;22554;-77
2022/06/14 10:41:50;;;;;;;3.60;0.90;;;;;;;22.15;39.86;99115.07;108487;1271;23289;-76
2022/06/14 10:44:56;;;;;;;5.40;1.00;;;;;;;22.48;38.87;99112.67;108480;1271;22688;-78
2022/06/14 10:47:42;;;;;;;5.40;1.50;;;;;;;22.76;39.12;99114.61;108464;1271;25641;-80
2022/06/14 10:50:24;;;;;;;3.90;1.00;;;;;;;22.97;38.28;99111.98;108403;1271;22541;-77
2022/06/14 10:53:24;;;;;;;3.90;1.20;;;;;;;23.13;39.15;99108.47;108420;1271;25421;-77
2022/06/14 10:56:32;;;;;;;5.50;1.20;;;;;;;23.33;39.04;99101.95;108413;1271;24232;-77
2022/06/14 10:59:15;;;;;;;2.90;1.00;;;;;;;23.38;38.16;99101.03;108072;1277;23421;-81
2022/06/14 11:01:53;;;;;;;4.50;1.10;;;;;;;23.38;37.09;99099.91;108039;1277;22523;-78
2022/06/14 11:04:25;;;;;;;3.10;1.00;;;;;;;23.38;36.80;99102.66;108078;1277;22605;-78
2022/06/14 11:07:17;;;;;;;3.20;1.00;;;;;;;23.37;36.78;99097.90;108051;1277;22553;-78
2022/06/14 11:10:02;;;;;;;4.80;1.00;;;;;;;23.44;36.84;99091.16;107932;1279;22606;-81
2022/06/14 11:12:32;;;;;;;3.50;1.10;;;;;;;23.62;37.11;99091.41;108031;1280;22599;-78
2022/06/14 11:15:23;;;;;;;3.50;1.50;;;;;;;23.68;36.69;99094.19;108011;1277;22551;-78
2022/06/14 11:18:01;;;;;;;3.60;1.10;;;;;;;23.56;35.81;99087.65;108040;1280;22623;-78
2022/06/14 11:20:34;;;;;;;4.50;1.30;;;;;;;23.72;35.82;99086.55;108003;1277;24405;-78
2022/06/14 11:23:11;;;;;;;6.10;2.00;;;;;;;23.84;34.94;99091.98;108029;1278;25397;-78
2022/06/14 11:26:09;;;;;;;4.80;1.30;;;;;;;23.97;35.60;99087.80;108360;1278;22532;-78
2022/06/14 11:29:16;;;;;;;4.30;1.50;;;;;;;24.11;35.13;99091.55;107984;1278;22539;-78
2022/06/14 11:32:09;;;;;;;3.80;1.10;;;;;;;24.04;35.53;99092.74;108003;1278;22722;-78
2022/06/14 11:35:03;;;;;;;5.70;1.10;;;;;;;24.05;35.91;99093.14;107987;1278;25434;-80
2022/06/14 11:37:50;;;;;;;3.70;1.10;;;;;;;24.21;35.92;99094.54;107985;1278;22650;-78
2022/06/14 11:40:25;;;;;;;4.20;1.20;;;;;;;24.25;35.53;99097.48;107987;1278;22632;-79
2022/06/14 11:42:55;;;;;;;4.10;1.30;;;;;;;24.27;35.90;99096.65;107987;1278;22597;-77
2022/06/14 11:45:48;;;;;;;2.70;1.20;;;;;;;24.38;35.94;99094.42;108001;1278;22541;-77
2022/06/14 11:48:36;;;;;;;3.00;1.20;;;;;;;24.65;36.24;99096.88;107964;1280;23461;-76
2022/06/14 11:51:40;;;;;;;3.30;1.00;;;;;;;24.79;35.70;99098.65;108043;1278;22685;-78
2022/06/14 11:54:25;;;;;;;3.00;1.10;;;;;;;24.99;35.16;99102.92;107991;1277;22559;-79
2022/06/14 11:56:59;;;;;;;8.20;1.10;;;;;;;25.13;35.17;99102.90;107937;1280;22667;-79
2022/06/14 11:59:51;;;;;;;4.00;1.20;;;;;;;25.21;34.65;99095.17;107990;1277;22562;-79
2022/06/14 12:02:42;;;;;;;3.10;1.00;;;;;;;25.08;33.86;99089.54;107972;1278;22530;-79
2022/06/14 12:05:44;;;;;;;3.80;1.00;;;;;;;24.95;34.77;99095.47;107931;1278;22595;-80
2022/06/14 12:08:32;;;;;;;2.60;1.00;;;;;;;24.83;33.94;99091.00;107478;1280;22589;-80
2022/06/14 12:11:24;;;;;;;1.90;0.90;;;;;;;24.80;34.00;99093.31;107952;1279;22605;-80
2022/06/14 12:14:16;;;;;;;3.70;1.00;;;;;;;24.83;33.83;99095.26;107880;1279;22565;-80
2022/06/14 12:16:49;;;;;;;4.10;1.00;;;;;;;24.76;33.27;99086.75;107958;1278;22916;-80
2022/06/14 12:19:33;;;;;;;4.30;1.10;;;;;;;24.85;33.33;99090.64;107927;1279;22590;-80
2022/06/14 12:22:28;;;;;;;4.10;1.20;;;;;;;24.89;32.60;99089.05;107934;1279;22547;-80
2022/06/14 12:27:53;;;;;;;4.50;1.40;;;;;;;25.13;33.21;99082.67;107934;1279;22529;-80
2022/06/14 12:30:23;;;;;;;3.90;1.30;;;;;;;25.11;33.20;99082.84;108010;1280;22558;-80
2022/06/14 12:33:01;;;;;;;4.40;1.10;;;;;;;24.78;32.88;99082.05;107912;1279;22575;-81
2022/06/14 12:35:34;;;;;;;3.90;1.30;;;;;;;24.28;32.94;99086.68;107955;1279;22531;-79
2022/06/14 12:38:15;;;;;;;9.50;1.30;;;;;;;23.77;33.95;99087.30;107931;1279;22561;-79